Time;durP1;ratioP1;P1;durP2;ratioP2;P2;SDS_P1;SDS_P2;PMS_P1;PMS_P2;Temp;Humidity;BMP_temperature;BMP_pressure;BME280_temperature;BME280_humidity;BME280_pressure;Samples;Min_cycle;Max_cycle;Signal;HPM_P1;HPM_P2
2023/07/05 00:01:13;;;;;;;7.85;3.25;;;;;;;15.79;100.00;100204.09;6194288;23;20044;-75
2023/07/05 00:03:40;;;;;;;4.65;3.45;;;;;;;15.78;100.00;100202.34;6194189;23;20058;-75
2023/07/05 00:06:06;;;;;;;6.55;3.63;;;;;;;15.87;100.00;100207.88;6170018;23;20008;-75
2023/07/05 00:08:33;;;;;;;14.38;4.22;;;;;;;15.80;100.00;100205.78;6169364;23;20016;-76
2023/07/05 00:11:06;;;;;;;7.45;4.03;;;;;;;15.85;100.00;100193.41;6194677;23;20078;-74
2023/07/05 00:13:32;;;;;;;7.60;3.80;;;;;;;15.85;100.00;100185.09;6218969;23;20274;-75
2023/07/05 00:15:59;;;;;;;10.90;4.00;;;;;;;15.83;100.00;100165.97;6245651;23;20023;-75
2023/07/05 00:18:25;;;;;;;9.15;4.47;;;;;;;15.86;100.00;100171.13;6193829;23;20008;-75
2023/07/05 00:20:51;;;;;;;10.55;3.60;;;;;;;15.77;100.00;100147.31;6219528;23;20015;-75
2023/07/05 00:23:16;;;;;;;9.30;4.65;;;;;;;15.72;100.00;100124.88;6194064;23;20012;-75
2023/07/05 00:25:42;;;;;;;11.13;4.90;;;;;;;15.91;100.00;100149.38;6245558;23;20375;-74
2023/07/05 00:28:10;;;;;;;7.10;4.05;;;;;;;15.89;100.00;100154.22;6194941;23;20012;-75
2023/07/05 00:30:35;;;;;;;14.00;4.90;;;;;;;15.80;100.00;100127.66;6194034;23;20077;-75
2023/07/05 00:33:01;;;;;;;6.15;4.30;;;;;;;15.87;100.00;100133.34;6193822;23;20008;-75
2023/07/05 00:35:29;;;;;;;10.18;4.25;;;;;;;15.79;100.00;100120.44;6194997;23;20062;-75
2023/07/05 00:37:54;;;;;;;6.95;4.32;;;;;;;15.78;100.00;100116.78;6219215;23;20487;-75
2023/07/05 00:40:19;;;;;;;7.47;4.28;;;;;;;15.71;100.00;100090.88;6193994;23;20012;-75
2023/07/05 00:42:45;;;;;;;6.82;4.43;;;;;;;15.75;100.00;100106.06;6193757;23;20042;-75
2023/07/05 00:45:10;;;;;;;11.55;4.95;;;;;;;15.84;100.00;100095.03;6194375;23;20015;-75
2023/07/05 00:47:40;;;;;;;8.52;4.63;;;;;;;15.74;100.00;100075.84;6193664;23;20008;-75
2023/07/05 00:50:19;;;;;;;10.18;4.25;;;;;;;15.75;100.00;100075.69;6218721;23;20091;-75
2023/07/05 00:52:45;;;;;;;8.27;4.30;;;;;;;15.62;100.00;100061.56;6193736;23;20087;-75
2023/07/05 00:55:11;;;;;;;8.57;4.28;;;;;;;15.50;100.00;100055.53;6218472;23;20032;-75
2023/07/05 00:57:39;;;;;;;8.63;4.32;;;;;;;15.57;100.00;100061.22;6168597;23;20028;-75
2023/07/05 01:00:12;;;;;;;9.55;4.88;;;;;;;15.62;100.00;100056.91;6193746;23;20008;-77
2023/07/05 01:02:41;;;;;;;8.02;4.40;;;;;;;15.67;100.00;100056.38;6194750;23;20069;-76
2023/07/05 01:05:11;;;;;;;11.02;4.43;;;;;;;15.70;100.00;100050.50;6193877;23;20004;-76
2023/07/05 01:07:37;;;;;;;12.10;5.15;;;;;;;15.83;100.00;100058.28;6193891;23;20035;-77
2023/07/05 01:10:03;;;;;;;9.65;5.10;;;;;;;15.85;100.00;100050.69;6193853;23;20408;-76
2023/07/05 01:12:44;;;;;;;11.27;4.80;;;;;;;15.90;100.00;100053.78;6193748;23;20308;-76
2023/07/05 01:15:18;;;;;;;9.88;5.10;;;;;;;15.92;100.00;100035.16;6245438;23;20030;-76
2023/07/05 01:17:57;;;;;;;7.15;4.57;;;;;;;15.99;100.00;100036.16;6218795;23;20012;-76
2023/07/05 01:20:38;;;;;;;11.98;5.15;;;;;;;16.05;100.00;100023.53;6218941;23;20015;-76
2023/07/05 01:23:31;;;;;;;10.65;4.63;;;;;;;16.19;100.00;100034.91;6218783;23;20008;-76
2023/07/05 01:26:15;;;;;;;7.80;3.75;;;;;;;16.24;100.00;100019.50;6219299;23;20004;-77
2023/07/05 01:28:40;;;;;;;12.95;4.05;;;;;;;16.25;100.00;100015.72;6195938;23;20016;-77
2023/07/05 01:31:14;;;;;;;4.93;3.10;;;;;;;16.29;100.00;100019.81;6195336;23;20005;-76
2023/07/05 01:34:11;;;;;;;5.28;3.47;;;;;;;16.31;100.00;100027.94;6195578;23;20008;-77
2023/07/05 01:36:37;;;;;;;5.30;3.70;;;;;;;16.26;100.00;100027.63;6220333;23;20016;-76
2023/07/05 01:39:03;;;;;;;8.35;4.13;;;;;;;16.29;100.00;100028.13;6221030;23;20024;-77
2023/07/05 01:41:29;;;;;;;9.02;3.30;;;;;;;16.37;100.00;100018.09;6171093;23;20099;-76
2023/07/05 01:43:55;;;;;;;4.07;2.72;;;;;;;16.30;100.00;100010.50;6195990;23;20378;-76
2023/07/05 01:46:39;;;;;;;4.40;3.03;;;;;;;16.30;100.00;100020.72;6220525;23;20439;-76
2023/07/05 01:49:13;;;;;;;5.28;3.17;;;;;;;16.33;100.00;100015.69;6220596;23;20004;-77
2023/07/05 01:52:02;;;;;;;7.78;2.95;;;;;;;16.39;100.00;100011.31;6220327;23;20161;-76
2023/07/05 01:55:01;;;;;;;3.92;2.63;;;;;;;16.37;100.00;100015.31;6220474;23;20008;-76
2023/07/05 01:57:51;;;;;;;5.10;2.97;;;;;;;16.37;100.00;100018.09;6186155;23;20012;-76
2023/07/05 02:00:20;;;;;;;3.70;2.63;;;;;;;16.29;100.00;100006.00;6219966;23;20008;-76
2023/07/05 02:02:57;;;;;;;3.25;2.38;;;;;;;16.27;100.00;99994.28;6220460;23;20424;-76
2023/07/05 02:05:27;;;;;;;3.85;2.03;;;;;;;16.32;100.00;100008.41;6247544;23;20135;-77
2023/07/05 02:07:53;;;;;;;6.90;1.88;;;;;;;16.29;100.00;100022.59;6219791;23;20008;-77
2023/07/05 02:10:18;;;;;;;2.38;1.60;;;;;;;16.24;100.00;100019.50;6220140;23;20390;-76
2023/07/05 02:12:44;;;;;;;3.10;1.67;;;;;;;16.15;100.00;100020.56;6247028;23;20043;-77
2023/07/05 02:15:10;;;;;;;5.82;1.75;;;;;;;16.15;100.00;100021.44;6220556;23;20083;-76
2023/07/05 02:17:36;;;;;;;3.70;1.90;;;;;;;16.17;100.00;100038.69;6196130;23;20432;-77
2023/07/05 02:20:03;;;;;;;2.13;1.65;;;;;;;16.12;100.00;100037.53;6195544;23;20036;-78
2023/07/05 02:22:29;;;;;;;4.90;1.85;;;;;;;16.03;100.00;100046.88;6220349;23;20023;-76
2023/07/05 02:24:55;;;;;;;2.90;1.80;;;;;;;15.99;100.00;100049.13;6195304;23;20012;-77
2023/07/05 02:27:21;;;;;;;1.52;1.30;;;;;;;16.02;100.00;100058.94;6194431;23;20283;-77
2023/07/05 02:29:47;;;;;;;2.17;1.20;;;;;;;15.99;100.00;100058.25;6185759;23;20303;-77
2023/07/05 02:32:13;;;;;;;2.65;1.75;;;;;;;15.85;100.00;100064.50;6136386;23;20077;-77
2023/07/05 02:34:40;;;;;;;4.25;1.40;;;;;;;15.83;100.00;100066.56;6160954;23;20524;-77
2023/07/05 02:37:07;;;;;;;5.68;1.75;;;;;;;15.67;100.00;100074.84;6186902;23;20017;-76
2023/07/05 02:39:32;;;;;;;2.97;1.30;;;;;;;15.66;100.00;100078.63;6184443;23;20048;-76
2023/07/05 02:41:57;;;;;;;1.55;1.33;;;;;;;15.56;100.00;100085.22;6186667;23;20009;-77
2023/07/05 02:44:23;;;;;;;1.83;1.30;;;;;;;15.48;100.00;100096.25;6160301;23;20036;-77
2023/07/05 02:46:48;;;;;;;4.18;1.63;;;;;;;15.49;100.00;100097.09;6136470;23;20420;-77
2023/07/05 02:49:14;;;;;;;6.70;1.80;;;;;;;15.37;100.00;100102.09;6136231;23;20064;-77
2023/07/05 02:51:40;;;;;;;2.45;1.35;;;;;;;15.14;100.00;100107.44;6185149;23;20013;-77
2023/07/05 02:54:08;;;;;;;4.15;1.60;;;;;;;15.07;100.00;100116.38;6186883;23;20073;-76
2023/07/05 02:56:33;;;;;;;3.20;1.48;;;;;;;14.90;100.00;100106.31;6185500;23;20009;-77
2023/07/05 02:58:59;;;;;;;5.22;1.65;;;;;;;14.93;100.00;100117.03;6184866;23;20009;-76
2023/07/05 03:01:24;;;;;;;4.60;1.85;;;;;;;14.85;100.00;100122.50;6185867;23;20059;-77
2023/07/05 03:03:50;;;;;;;2.88;1.50;;;;;;;14.69;100.00;100110.41;6184670;23;20005;-76
2023/07/05 03:06:15;;;;;;;2.72;1.83;;;;;;;14.69;100.00;100126.94;6160380;23;20325;-76
2023/07/05 03:08:41;;;;;;;7.47;1.95;;;;;;;14.72;100.00;100128.50;6160591;23;20019;-76
2023/07/05 03:11:06;;;;;;;3.92;2.08;;;;;;;14.65;100.00;100113.66;6159995;23;20032;-77
2023/07/05 03:13:33;;;;;;;5.93;2.47;;;;;;;14.58;100.00;100115.34;6184599;23;20090;-76
2023/07/05 03:15:59;;;;;;;8.00;3.05;;;;;;;14.56;100.00;100128.38;6210941;23;20009;-76
2023/07/05 03:18:26;;;;;;;4.57;2.42;;;;;;;14.42;100.00;100129.88;6160578;23;20009;-76
2023/07/05 03:20:52;;;;;;;4.80;2.42;;;;;;;14.25;100.00;100106.88;6137487;23;20013;-77
2023/07/05 03:23:18;;;;;;;4.35;2.38;;;;;;;14.30;100.00;100118.31;6189025;23;20436;-76
2023/07/05 03:26:04;;;;;;;5.25;2.33;;;;;;;14.27;100.00;100130.50;6139308;23;20017;-77
2023/07/05 03:28:32;;;;;;;4.43;2.40;;;;;;;14.23;100.00;100129.13;6221302;23;20424;-77
2023/07/05 03:31:06;;;;;;;4.72;2.50;;;;;;;14.06;100.00;100136.38;6220050;23;20031;-77
2023/07/05 03:33:33;;;;;;;8.10;3.10;;;;;;;14.13;100.00;100147.59;6219730;23;20004;-77
2023/07/05 03:36:00;;;;;;;13.45;3.33;;;;;;;14.06;100.00;100154.81;6194173;23;20102;-76
2023/07/05 03:38:27;;;;;;;8.20;2.95;;;;;;;14.04;100.00;100154.09;6193196;23;20396;-76
2023/07/05 03:41:05;;;;;;;6.30;2.90;;;;;;;13.96;100.00;100149.41;6169510;23;20385;-76
2023/07/05 03:43:35;;;;;;;4.45;2.30;;;;;;;13.92;100.00;100143.38;6219817;23;20015;-76
2023/07/05 03:46:02;;;;;;;9.25;3.20;;;;;;;13.76;100.00;100129.47;6193890;23;20008;-77
2023/07/05 03:48:30;;;;;;;7.43;2.72;;;;;;;13.85;100.00;100146.91;6218988;23;20016;-78
2023/07/05 03:50:57;;;;;;;9.05;2.97;;;;;;;13.78;100.00;100136.53;6219645;23;20093;-77
2023/07/05 03:53:23;;;;;;;6.05;2.92;;;;;;;13.81;100.00;100148.22;6194376;23;20012;-77
2023/07/05 03:55:49;;;;;;;5.57;3.00;;;;;;;13.81;100.00;100139.97;6194691;23;20012;-77
2023/07/05 03:58:14;;;;;;;9.35;2.85;;;;;;;13.83;100.00;100146.22;6220208;23;20004;-76
2023/07/05 04:00:40;;;;;;;4.60;2.22;;;;;;;13.87;100.00;100147.59;6246266;23;20000;-76
2023/07/05 04:03:05;;;;;;;10.00;3.00;;;;;;;13.86;100.00;100141.25;6194302;23;20015;-77
2023/07/05 04:05:31;;;;;;;5.53;2.42;;;;;;;13.85;100.00;100139.50;6219274;23;20085;-76
2023/07/05 04:07:57;;;;;;;8.35;2.80;;;;;;;13.94;100.00;100143.19;6219092;23;20015;-76
2023/07/05 04:10:22;;;;;;;8.68;2.38;;;;;;;13.99;100.00;100135.31;6169242;23;20011;-76
2023/07/05 04:12:48;;;;;;;8.73;2.60;;;;;;;14.02;100.00;100129.50;6193891;23;20063;-76
2023/07/05 04:15:14;;;;;;;4.82;2.40;;;;;;;14.06;100.00;100132.78;6193811;23;20018;-76
2023/07/05 04:17:39;;;;;;;8.40;3.08;;;;;;;14.02;100.00;100121.25;6193550;23;20008;-77
2023/07/05 04:20:06;;;;;;;5.38;2.63;;;;;;;14.09;100.00;100127.81;6219047;23;20016;-76
2023/07/05 04:22:31;;;;;;;8.75;2.85;;;;;;;14.08;100.00;100134.31;6217646;23;20325;-76
2023/07/05 04:24:57;;;;;;;22.00;3.20;;;;;;;14.10;100.00;100139.66;6218962;23;20093;-77
2023/07/05 04:27:22;;;;;;;6.25;3.20;;;;;;;14.06;100.00;100130.88;6218667;23;20135;-77
2023/07/05 04:29:48;;;;;;;4.40;2.70;;;;;;;14.18;100.00;100145.22;6169343;23;20051;-77
2023/07/05 04:32:13;;;;;;;6.70;3.55;;;;;;;14.14;100.00;100143.84;6219177;23;20478;-77
2023/07/05 04:34:41;;;;;;;10.95;2.70;;;;;;;14.25;100.00;100151.84;6193728;23;20387;-77
2023/07/05 04:37:06;;;;;;;5.65;3.08;;;;;;;14.14;100.00;100132.84;6218884;23;20087;-78
2023/07/05 04:39:32;;;;;;;8.32;2.83;;;;;;;14.20;100.00;100142.31;6219029;23;20390;-77
2023/07/05 04:41:57;;;;;;;5.00;2.22;;;;;;;14.26;100.00;100153.53;6169367;23;20008;-78
2023/07/05 04:44:23;;;;;;;11.25;3.67;;;;;;;14.31;100.00;100159.44;6219241;23;20058;-77
2023/07/05 04:46:48;;;;;;;8.20;3.20;;;;;;;14.19;100.00;100135.97;6219018;23;20388;-77
2023/07/05 04:49:14;;;;;;;8.07;2.83;;;;;;;14.32;100.00;100163.91;6193942;23;20463;-77
2023/07/05 04:51:39;;;;;;;7.63;3.00;;;;;;;14.30;100.00;100162.38;6246090;23;20425;-77
2023/07/05 04:54:05;;;;;;;9.77;2.80;;;;;;;14.32;100.00;100161.16;6194179;23;20012;-77
2023/07/05 04:56:30;;;;;;;4.90;2.40;;;;;;;14.32;100.00;100146.53;6193903;23;20480;-76
2023/07/05 04:58:56;;;;;;;7.07;3.28;;;;;;;14.37;100.00;100163.44;6219070;23;20001;-77
2023/07/05 05:01:22;;;;;;;9.95;3.45;;;;;;;14.23;100.00;100122.72;6195771;23;20011;-77
2023/07/05 05:03:48;;;;;;;6.50;3.03;;;;;;;14.35;100.00;100148.97;6221228;23;20435;-77
2023/07/05 05:06:15;;;;;;;9.25;3.72;;;;;;;14.41;100.00;100166.72;6196394;23;20000;-77
2023/07/05 05:08:40;;;;;;;6.22;2.65;;;;;;;14.43;100.00;100157.28;6221109;23;20574;-78
2023/07/05 05:11:06;;;;;;;8.27;3.70;;;;;;;14.46;100.00;100151.44;6195623;23;20061;-77
2023/07/05 05:13:33;;;;;;;5.88;2.83;;;;;;;14.27;100.00;100146.16;6222211;23;20019;-77
2023/07/05 05:16:02;;;;;;;7.35;3.45;;;;;;;14.38;100.00;100137.63;6221287;23;20011;-78
2023/07/05 05:18:32;;;;;;;5.65;2.65;;;;;;;14.49;100.00;100136.47;6196300;23;20008;-77
2023/07/05 05:20:58;;;;;;;8.98;3.30;;;;;;;14.55;100.00;100121.19;6196022;23;20004;-77
2023/07/05 05:23:24;;;;;;;6.60;2.85;;;;;;;14.68;100.00;100139.00;6247347;23;20016;-77
2023/07/05 05:25:52;;;;;;;11.07;3.08;;;;;;;14.67;100.00;100134.50;6220531;23;20016;-77
2023/07/05 05:28:19;;;;;;;8.50;3.40;;;;;;;14.67;100.00;100141.91;6220293;23;20054;-77
2023/07/05 05:30:45;;;;;;;9.63;3.22;;;;;;;14.67;100.00;100153.78;6170744;23;20016;-78
2023/07/05 05:33:13;;;;;;;6.45;2.50;;;;;;;14.64;100.00;100150.50;6195657;23;20015;-77
2023/07/05 05:35:39;;;;;;;6.07;2.95;;;;;;;14.55;100.00;100157.84;6171143;23;20019;-76
2023/07/05 05:38:05;;;;;;;15.20;2.95;;;;;;;14.56;100.00;100162.34;6196635;23;20008;-76
2023/07/05 05:40:34;;;;;;;13.05;3.00;;;;;;;14.58;100.00;100154.75;6219923;23;20056;-76
2023/07/05 05:43:00;;;;;;;8.38;2.88;;;;;;;14.55;100.00;100171.63;6245864;23;20023;-76
2023/07/05 05:45:25;;;;;;;6.25;2.80;;;;;;;14.56;100.00;100166.97;6220104;23;20406;-77
2023/07/05 05:47:51;;;;;;;9.73;2.85;;;;;;;14.49;100.00;100162.13;6196252;23;20004;-76
2023/07/05 05:50:19;;;;;;;12.20;3.20;;;;;;;14.55;100.00;100149.56;6195917;23;20040;-76
2023/07/05 05:52:44;;;;;;;11.38;3.50;;;;;;;14.47;100.00;100146.78;6171358;23;20012;-77
2023/07/05 05:55:09;;;;;;;9.45;3.25;;;;;;;14.48;100.00;100141.09;6220639;23;20289;-77
2023/07/05 05:57:35;;;;;;;5.45;2.05;;;;;;;14.83;100.00;100153.00;6195328;23;20008;-77
2023/07/05 06:00:00;;;;;;;7.43;2.80;;;;;;;14.88;100.00;100166.28;6220989;23;20004;-78
2023/07/05 06:02:26;;;;;;;10.32;2.88;;;;;;;14.84;100.00;100171.28;6169631;23;20044;-76
2023/07/05 06:04:52;;;;;;;7.47;2.63;;;;;;;14.78;100.00;100168.31;6219708;23;20008;-76
2023/07/05 06:07:18;;;;;;;6.82;2.88;;;;;;;14.68;100.00;100168.44;6194687;23;20031;-76
2023/07/05 06:09:48;;;;;;;7.43;2.60;;;;;;;14.74;100.00;100176.06;6247048;23;20012;-77
2023/07/05 06:12:14;;;;;;;4.47;2.35;;;;;;;14.76;100.00;100168.47;6169904;23;20038;-77
2023/07/05 06:14:39;;;;;;;4.82;2.35;;;;;;;14.64;100.00;100169.78;6220642;23;20468;-77
2023/07/05 06:17:05;;;;;;;6.72;2.20;;;;;;;14.76;100.00;100184.13;6193204;23;20018;-77
2023/07/05 06:19:31;;;;;;;10.32;2.33;;;;;;;14.73;100.00;100195.50;6220177;23;20004;-77
2023/07/05 06:21:56;;;;;;;3.53;2.10;;;;;;;14.72;100.00;100196.53;6170075;23;20016;-77
2023/07/05 06:24:22;;;;;;;6.82;2.30;;;;;;;14.68;100.00;100194.09;6219756;23;20091;-77
2023/07/05 06:26:48;;;;;;;15.32;2.42;;;;;;;14.52;100.00;100216.03;6218412;23;20016;-77
2023/07/05 06:29:14;;;;;;;7.50;2.05;;;;;;;14.64;100.00;100214.75;6170475;23;20019;-77
2023/07/05 06:31:39;;;;;;;4.53;1.70;;;;;;;14.65;100.00;100213.72;6169900;23;20008;-76
2023/07/05 06:34:08;;;;;;;8.85;2.58;;;;;;;14.65;100.00;100207.34;6194756;23;20381;-77
2023/07/05 06:36:33;;;;;;;8.40;2.20;;;;;;;14.66;100.00;100211.84;6194636;23;20012;-77
2023/07/05 06:39:02;;;;;;;6.95;2.50;;;;;;;14.74;100.00;100217.41;6220132;23;20016;-77
2023/07/05 06:41:29;;;;;;;7.72;2.30;;;;;;;14.52;100.00;100211.38;6219828;23;20015;-77
2023/07/05 06:43:54;;;;;;;3.90;1.77;;;;;;;14.45;100.00;100203.94;6220066;23;20416;-77
2023/07/05 06:46:23;;;;;;;5.95;1.70;;;;;;;14.75;100.00;100227.38;6220243;23;20019;-77
2023/07/05 06:48:51;;;;;;;4.22;2.15;;;;;;;15.49;100.00;100219.34;6194541;23;20013;-77
2023/07/05 06:51:17;;;;;;;9.25;2.30;;;;;;;15.89;100.00;100244.44;6219569;23;20019;-77
2023/07/05 06:53:44;;;;;;;5.68;1.52;;;;;;;15.41;100.00;100217.47;6169903;23;20008;-77
2023/07/05 06:56:09;;;;;;;5.78;2.00;;;;;;;15.74;100.00;100238.72;6219338;23;20004;-77
2023/07/05 06:58:36;;;;;;;8.25;1.52;;;;;;;16.23;100.00;100251.72;6194619;23;20066;-77
2023/07/05 07:01:03;;;;;;;6.25;2.38;;;;;;;16.78;100.00;100253.69;6170078;23;20099;-77
2023/07/05 07:03:29;;;;;;;3.90;1.63;;;;;;;16.47;100.00;100256.38;6220015;23;20011;-77
2023/07/05 07:05:57;;;;;;;7.03;1.73;;;;;;;16.01;100.00;100248.63;6219626;23;20039;-77
2023/07/05 07:08:29;;;;;;;10.43;1.58;;;;;;;16.62;100.00;100250.97;6219199;23;20099;-77
2023/07/05 07:10:54;;;;;;;4.65;1.67;;;;;;;17.00;100.00;100260.41;6246141;23;20008;-77
2023/07/05 07:13:21;;;;;;;5.18;1.65;;;;;;;16.46;100.00;100247.22;6194470;23;20506;-77
2023/07/05 07:15:46;;;;;;;3.63;1.60;;;;;;;16.22;100.00;100261.06;6169504;23;20007;-77
2023/07/05 07:18:12;;;;;;;11.20;2.15;;;;;;;15.86;100.00;100262.25;6194568;23;20014;-77
2023/07/05 07:20:39;;;;;;;7.32;1.42;;;;;;;15.85;100.00;100271.53;6195133;23;20091;-77
2023/07/05 07:23:04;;;;;;;3.85;1.50;;;;;;;15.91;100.00;100279.16;6219101;23;20009;-77
2023/07/05 07:25:30;;;;;;;2.50;1.42;;;;;;;15.82;100.00;100280.16;6219437;23;20008;-77
2023/07/05 07:27:56;;;;;;;18.50;1.52;;;;;;;15.73;100.00;100293.06;6193854;23;20020;-77
2023/07/05 07:30:21;;;;;;;4.85;1.40;;;;;;;15.33;100.00;100296.56;6219089;23;20135;-77
2023/07/05 07:32:48;;;;;;;3.08;1.35;;;;;;;15.71;100.00;100288.72;6194730;23;20008;-77
2023/07/05 07:35:14;;;;;;;4.97;1.83;;;;;;;15.68;100.00;100306.50;6219306;23;20336;-77
2023/07/05 07:37:40;;;;;;;3.50;1.42;;;;;;;16.58;100.00;100288.28;6218649;23;20351;-78
2023/07/05 07:40:07;;;;;;;5.72;1.40;;;;;;;16.31;100.00;100299.53;6219290;23;20313;-78
2023/07/05 07:42:33;;;;;;;5.35;1.40;;;;;;;16.34;100.00;100307.47;6169657;23;20062;-77
2023/07/05 07:45:01;;;;;;;11.63;1.63;;;;;;;15.85;100.00;100324.00;6194127;23;20016;-78
2023/07/05 07:47:27;;;;;;;3.42;1.15;;;;;;;15.70;100.00;100326.53;6193887;23;20000;-78
2023/07/05 07:49:52;;;;;;;3.47;1.13;;;;;;;15.44;100.00;100318.31;6194368;23;20038;-78
2023/07/05 07:52:18;;;;;;;4.63;1.80;;;;;;;15.24;100.00;100304.78;6144779;23;20109;-78
2023/07/05 07:54:44;;;;;;;14.48;1.77;;;;;;;15.23;100.00;100336.19;6246143;23;20442;-78
2023/07/05 07:57:11;;;;;;;5.82;1.40;;;;;;;14.97;100.00;100324.28;6246032;23;20031;-77
2023/07/05 07:59:41;;;;;;;7.10;1.60;;;;;;;15.11;100.00;100348.50;6219504;23;20436;-77
2023/07/05 08:02:13;;;;;;;4.03;1.60;;;;;;;15.05;100.00;100352.81;6219273;23;20004;-77
2023/07/05 08:04:44;;;;;;;3.35;1.65;;;;;;;15.33;100.00;100362.75;6169551;23;20012;-76
2023/07/05 08:07:09;;;;;;;6.03;1.40;;;;;;;15.16;100.00;100354.41;6219835;23;20075;-76
2023/07/05 08:09:36;;;;;;;1.77;0.90;;;;;;;15.34;100.00;100358.97;6219155;23;20031;-77
2023/07/05 08:12:02;;;;;;;5.72;1.75;;;;;;;16.01;100.00;100355.47;6246590;23;20019;-76
2023/07/05 08:14:28;;;;;;;3.83;1.80;;;;;;;16.06;100.00;100369.63;6169443;23;20012;-77
2023/07/05 08:16:54;;;;;;;3.55;1.30;;;;;;;15.84;100.00;100369.22;6219298;23;20015;-76
2023/07/05 08:19:20;;;;;;;6.47;1.55;;;;;;;15.73;100.00;100363.97;6245737;23;20427;-77
2023/07/05 08:21:46;;;;;;;4.72;1.48;;;;;;;15.66;100.00;100371.19;6194419;23;20012;-77
2023/07/05 08:24:14;;;;;;;4.45;1.30;;;;;;;15.74;100.00;100365.69;6245800;23;20018;-77
2023/07/05 08:26:39;;;;;;;7.35;1.40;;;;;;;15.90;100.00;100360.25;6193427;23;20016;-79
2023/07/05 08:29:05;;;;;;;4.97;1.70;;;;;;;15.86;100.00;100336.78;6219330;23;20012;-79
2023/07/05 08:31:30;;;;;;;5.18;1.42;;;;;;;16.01;100.00;100347.19;6193500;23;20073;-77
2023/07/05 08:33:56;;;;;;;4.38;1.15;;;;;;;16.13;100.00;100378.94;6219340;23;20023;-77
2023/07/05 08:36:36;;;;;;;10.50;1.60;;;;;;;16.15;100.00;100377.75;6221055;23;20009;-76
2023/07/05 08:39:07;;;;;;;8.75;1.30;;;;;;;16.91;100.00;100374.88;6221324;23;20007;-77
2023/07/05 08:41:41;;;;;;;5.55;1.50;;;;;;;16.86;100.00;100388.34;6196288;23;20097;-77
2023/07/05 08:44:22;;;;;;;7.75;1.38;;;;;;;16.73;100.00;100389.69;6248513;23;20008;-77
2023/07/05 08:47:16;;;;;;;10.77;2.00;;;;;;;16.88;100.00;100402.88;6221502;23;20058;-77
2023/07/05 08:50:08;;;;;;;6.20;1.50;;;;;;;18.24;99.60;100389.97;6248731;23;20036;-77
2023/07/05 08:52:39;;;;;;;12.10;2.10;;;;;;;17.90;96.52;100388.41;6165775;23;20343;-76
2023/07/05 08:55:10;;;;;;;6.88;1.88;;;;;;;17.95;99.31;100402.59;6248225;23;20012;-76
2023/07/05 08:57:52;;;;;;;4.75;1.52;;;;;;;17.68;98.24;100402.00;6248043;23;20009;-76
2023/07/05 09:00:27;;;;;;;3.85;1.50;;;;;;;16.94;100.00;100391.13;6220935;23;20094;-77
2023/07/05 09:02:55;;;;;;;7.20;1.67;;;;;;;17.36;100.00;100425.09;6187289;23;20019;-77
2023/07/05 09:05:45;;;;;;;5.88;1.95;;;;;;;17.25;100.00;100429.97;6186753;23;20016;-77
2023/07/05 09:08:31;;;;;;;9.73;1.90;;;;;;;16.88;100.00;100434.13;6221423;23;20004;-77
2023/07/05 09:11:26;;;;;;;5.85;1.58;;;;;;;17.71;100.00;100443.16;6220792;23;20107;-76
2023/07/05 09:14:16;;;;;;;5.18;1.70;;;;;;;18.84;96.31;100454.88;6221182;23;20008;-77
2023/07/05 09:17:09;;;;;;;4.82;1.80;;;;;;;19.22;92.77;100430.78;6195498;23;20035;-76
2023/07/05 09:19:59;;;;;;;8.73;1.73;;;;;;;19.92;89.29;100462.00;6195267;23;20344;-76
2023/07/05 09:22:30;;;;;;;5.82;1.88;;;;;;;18.95;89.26;100453.59;6196370;23;20440;-77
2023/07/05 09:24:56;;;;;;;7.90;1.92;;;;;;;18.77;91.45;100454.72;6221279;23;20008;-76
2023/07/05 09:27:32;;;;;;;7.15;1.80;;;;;;;18.05;96.29;100478.00;6200363;23;20023;-76
2023/07/05 09:30:14;;;;;;;10.45;1.90;;;;;;;18.71;92.75;100466.56;6161540;23;20009;-77
2023/07/05 09:32:45;;;;;;;;;;;;;;;18.26;93.76;100457.16;6188181;23;20425;-77
2023/07/05 09:35:18;;;;;;;8.13;1.90;;;;;;;17.91;96.60;100470.47;6185727;23;19910;-77
2023/07/05 09:38:28;;;;;;;13.98;2.30;;;;;;;17.88;96.03;100479.16;6185756;23;20162;-78
2023/07/05 09:41:28;;;;;;;5.93;1.60;;;;;;;18.27;92.74;100495.78;6186191;23;20020;-77
2023/07/05 09:43:53;;;;;;;10.73;1.80;;;;;;;18.06;93.55;100485.28;6180960;23;20009;-77
2023/07/05 09:46:33;;;;;;;16.55;2.00;;;;;;;17.83;95.23;100493.50;6185525;23;20012;-77
2023/07/05 09:48:59;;;;;;;23.75;2.08;;;;;;;19.01;91.85;100500.00;6161036;23;20020;-77
2023/07/05 09:51:25;;;;;;;9.32;1.67;;;;;;;19.44;84.22;100495.63;6160918;23;20013;-77
2023/07/05 09:54:03;;;;;;;7.25;1.58;;;;;;;19.80;79.94;100488.50;6186199;23;20040;-77
2023/07/05 09:56:29;;;;;;;3.95;1.30;;;;;;;20.08;77.60;100507.28;6185611;23;20307;-78
2023/07/05 09:59:08;;;;;;;8.98;2.22;;;;;;;19.81;76.40;100527.22;6186985;23;20147;-77
2023/07/05 10:01:36;;;;;;;8.25;1.30;;;;;;;19.24;79.64;100520.28;6185976;23;20345;-77
2023/07/05 10:04:04;;;;;;;3.92;1.23;;;;;;;19.39;77.24;100505.56;6161102;23;20013;-77
2023/07/05 10:06:31;;;;;;;11.60;1.80;;;;;;;19.23;77.16;100521.34;6211277;23;20024;-77
2023/07/05 10:09:04;;;;;;;8.02;1.67;;;;;;;18.70;81.80;100535.03;6187955;23;20063;-77
2023/07/05 10:11:35;;;;;;;12.85;1.65;;;;;;;18.69;81.15;100526.88;6187556;23;20017;-77
2023/07/05 10:14:15;;;;;;;4.38;1.98;;;;;;;18.47;83.46;100531.38;6186583;23;20013;-77
2023/07/05 10:16:56;;;;;;;5.88;1.55;;;;;;;19.17;80.04;100546.19;6185322;23;20380;-77
2023/07/05 10:19:25;;;;;;;11.27;1.70;;;;;;;19.09;80.07;100544.34;6164788;23;20012;-77
2023/07/05 10:22:22;;;;;;;9.35;2.03;;;;;;;18.49;79.59;100557.84;6187670;23;20095;-77
2023/07/05 10:24:51;;;;;;;7.72;1.63;;;;;;;18.49;79.37;100571.72;6197269;23;20016;-77
2023/07/05 10:27:34;;;;;;;4.50;1.58;;;;;;;18.87;77.47;100548.81;6214338;23;20012;-77
2023/07/05 10:30:07;;;;;;;11.70;2.38;;;;;;;18.71;78.71;100569.19;6247492;23;20040;-77
2023/07/05 10:32:34;;;;;;;11.63;2.55;;;;;;;18.44;77.82;100549.22;6247205;23;20046;-77
2023/07/05 10:35:01;;;;;;;17.58;2.30;;;;;;;19.53;74.10;100565.84;6170621;23;20023;-77
2023/07/05 10:37:33;;;;;;;16.67;2.05;;;;;;;19.90;72.37;100566.03;6219911;23;20008;-78
2023/07/05 10:40:08;;;;;;;10.52;1.88;;;;;;;19.08;72.96;100584.25;6194941;23;20455;-78
2023/07/05 10:42:49;;;;;;;7.70;1.40;;;;;;;19.72;74.80;100583.88;6220373;23;20015;-77
2023/07/05 10:45:18;;;;;;;6.97;1.63;;;;;;;19.32;74.26;100601.78;6193959;23;20008;-77
2023/07/05 10:47:52;;;;;;;4.63;1.38;;;;;;;19.16;73.73;100591.66;6220120;23;20000;-77
2023/07/05 10:50:23;;;;;;;;;;;;;;;18.88;76.37;100606.91;6171217;23;20400;-76
2023/07/05 10:52:57;;;;;;;13.15;3.67;;;;;;;18.94;75.18;100621.09;6195154;23;20311;-77
2023/07/05 10:55:33;;;;;;;10.23;1.55;;;;;;;20.19;71.79;100590.22;6220240;23;20436;-77
2023/07/05 10:58:14;;;;;;;4.20;1.38;;;;;;;20.57;67.92;100606.78;6197622;23;20012;-77
2023/07/05 11:01:08;;;;;;;7.95;1.60;;;;;;;20.68;65.99;100616.59;6219778;23;20053;-78
2023/07/05 11:04:05;;;;;;;10.95;1.67;;;;;;;20.28;66.77;100624.34;6194882;23;20089;-77
2023/07/05 11:06:37;;;;;;;4.68;1.48;;;;;;;20.20;66.86;100623.38;6220524;23;20008;-77
2023/07/05 11:09:03;;;;;;;14.88;1.60;;;;;;;20.89;65.15;100610.22;6246928;23;20328;-78
2023/07/05 11:11:35;;;;;;;4.60;1.60;;;;;;;20.64;64.85;100643.94;6219981;23;20004;-77
2023/07/05 11:14:03;;;;;;;6.55;1.40;;;;;;;20.26;66.99;100638.44;6220125;23;20012;-77
2023/07/05 11:16:31;;;;;;;9.65;1.70;;;;;;;19.83;65.58;100629.84;6219704;23;20336;-77
2023/07/05 11:19:03;;;;;;;4.43;1.23;;;;;;;19.40;68.34;100649.78;6247483;23;20007;-77
2023/07/05 11:21:49;;;;;;;8.75;1.90;;;;;;;20.04;68.74;100637.47;6246857;23;20075;-77
2023/07/05 11:24:36;;;;;;;7.97;1.55;;;;;;;20.38;65.29;100650.81;6194256;23;20062;-78
2023/07/05 11:27:23;;;;;;;11.30;1.88;;;;;;;19.96;66.13;100657.00;6206972;23;20126;-78
2023/07/05 11:29:52;;;;;;;11.52;1.67;;;;;;;19.97;65.30;100642.91;6185991;23;20064;-77